createdAt,value
2023-04-11T00:06:43.256Z,8.70
2023-04-11T00:17:06.243Z,8.10
2023-04-11T00:27:27.271Z,8.10
2023-04-11T00:37:49.885Z,8.55
2023-04-11T00:48:11.279Z,7.20
2023-04-11T00:58:34.096Z,8.88
2023-04-11T01:08:55.627Z,5.85
2023-04-11T01:19:21.300Z,7.80
2023-04-11T01:29:42.490Z,7.70
2023-04-11T01:40:05.895Z,7.10
2023-04-11T01:50:27.539Z,6.82
2023-04-11T02:00:48.834Z,7.63
2023-04-11T02:11:11.040Z,7.78
2023-04-11T02:21:33.283Z,7.75
2023-04-11T02:31:54.666Z,6.68
2023-04-11T02:42:16.208Z,6.80
2023-04-11T02:52:39.517Z,6.57
2023-04-11T03:03:02.794Z,8.63
2023-04-11T03:13:30.599Z,6.25
2023-04-11T03:23:52.080Z,7.75
2023-04-11T03:34:13.506Z,7.55
2023-04-11T03:44:36.305Z,7.53
2023-04-11T03:54:57.766Z,7.85
2023-04-11T04:05:22.143Z,7.35
2023-04-11T04:15:43.670Z,6.45
2023-04-11T04:26:07.594Z,6.18
2023-04-11T04:36:31.521Z,7.32
2023-04-11T04:46:57.008Z,8.73
2023-04-11T04:57:21.719Z,5.72
2023-04-11T05:07:43.064Z,7.57
2023-04-11T05:18:05.270Z,7.97
2023-04-11T05:28:31.729Z,6.45
2023-04-11T05:38:53.992Z,6.95
2023-04-11T05:49:15.765Z,6.85
2023-04-11T05:59:37.967Z,8.23
2023-04-11T06:09:59.504Z,9.02
2023-04-11T06:20:21.831Z,8.02
2023-04-11T06:30:42.777Z,8.48
2023-04-11T06:41:03.896Z,7.85
2023-04-11T06:51:25.218Z,7.07
2023-04-11T07:01:47.032Z,8.30
2023-04-11T07:12:08.421Z,7.93
2023-04-11T07:22:29.530Z,7.72
2023-04-11T07:32:51.325Z,7.03
2023-04-11T07:43:12.670Z,7.65
2023-04-11T07:53:33.533Z,6.68
2023-04-11T08:03:56.305Z,6.78
2023-04-11T08:14:17.935Z,7.63
2023-04-11T08:24:38.842Z,7.28
2023-04-11T08:34:59.874Z,6.07
2023-04-11T08:45:21.323Z,6.57
2023-04-11T08:55:47.356Z,5.72
2023-04-11T09:06:11.706Z,7.50
2023-04-11T09:16:32.995Z,6.63
2023-04-11T09:27:13.790Z,5.25
2023-04-11T09:37:58.699Z,6.35
2023-04-11T09:48:19.894Z,4.93
2023-04-11T09:58:42.313Z,4.75
2023-04-11T10:09:11.685Z,4.05
2023-04-11T10:19:32.644Z,4.32
2023-04-11T10:29:53.969Z,4.95
2023-04-11T10:40:17.093Z,4.63
2023-04-11T10:50:46.109Z,6.10
2023-04-11T11:01:31.364Z,3.58
2023-04-11T11:12:12.122Z,3.55
2023-04-11T11:22:33.199Z,3.22
2023-04-11T11:32:55.050Z,2.15
2023-04-11T11:43:16.977Z,2.78
2023-04-11T11:53:38.061Z,1.90
2023-04-11T12:03:59.721Z,3.72
2023-04-11T12:14:24.639Z,2.35
2023-04-11T12:24:46.235Z,3.03
2023-04-11T12:35:07.913Z,2.40
2023-04-11T12:45:29.106Z,2.38
2023-04-11T12:55:50.548Z,2.28
2023-04-11T13:06:12.119Z,2.28
2023-04-11T13:16:34.118Z,2.08
2023-04-11T13:26:55.696Z,3.00
2023-04-11T13:37:16.693Z,2.17
2023-04-11T13:47:38.960Z,2.53
2023-04-11T13:58:00.312Z,2.38
2023-04-11T14:08:21.877Z,3.90
2023-04-11T14:18:43.008Z,2.22
2023-04-11T14:29:04.912Z,2.60
2023-04-11T14:39:26.124Z,3.42
2023-04-11T14:49:47.574Z,1.02
2023-04-11T15:00:15.711Z,2.00
2023-04-11T15:10:36.807Z,2.20
2023-04-11T15:21:03.717Z,2.35
2023-04-11T15:41:49.198Z,2.15
2023-04-11T17:09:32.054Z,2.72
2023-04-11T17:19:53.408Z,4.15
2023-04-11T17:30:14.635Z,1.77
2023-04-11T17:40:36.119Z,1.38
2023-04-11T17:50:57.253Z,1.95
2023-04-11T18:01:19.511Z,2.50
2023-04-11T18:11:42.196Z,1.42
2023-04-11T18:22:03.390Z,2.33
2023-04-11T18:32:27.178Z,2.20
2023-04-11T18:42:53.067Z,3.10
2023-04-11T18:53:15.975Z,2.72
2023-04-11T19:03:37.524Z,2.03
2023-04-11T19:14:02.713Z,1.60
2023-04-11T19:24:24.016Z,2.10
2023-04-11T19:34:45.056Z,2.90
2023-04-11T19:45:07.519Z,2.25
2023-04-11T19:55:35.358Z,3.13
2023-04-11T20:05:56.945Z,3.35
2023-04-11T20:16:22.652Z,2.13
2023-04-11T20:26:43.990Z,2.60
2023-04-11T20:37:04.963Z,2.83
2023-04-11T20:47:26.223Z,2.00
2023-04-11T20:57:47.731Z,2.15
2023-04-11T21:08:08.940Z,3.63
2023-04-11T21:18:29.860Z,4.88
2023-04-11T21:28:50.822Z,2.85
2023-04-11T21:39:11.944Z,2.47
2023-04-11T21:49:33.264Z,2.95
2023-04-11T21:59:54.616Z,3.90
2023-04-11T22:10:23.979Z,3.25
2023-04-11T22:20:46.083Z,3.40
2023-04-11T22:31:07.725Z,2.80
2023-04-11T22:41:30.675Z,1.55
2023-04-11T22:51:53.451Z,2.17
2023-04-11T23:02:14.904Z,2.22
2023-04-11T23:12:36.597Z,2.90
2023-04-11T23:22:58.683Z,2.45
2023-04-11T23:33:19.751Z,3.05
2023-04-11T23:43:41.005Z,1.48
2023-04-11T23:54:02.098Z,1.80
